Time;durP1;ratioP1;P1;durP2;ratioP2;P2;SDS_P1;SDS_P2;PMS_P1;PMS_P2;Temp;Humidity;BMP_temperature;BMP_pressure;BME280_temperature;BME280_humidity;BME280_pressure;Samples;Min_cycle;Max_cycle;Signal;HPM_P1;HPM_P2
2021/09/08 00:01:09;;;;;;;21.77;13.60;;;12.40;98.00;;;;;;5036519;28;20095;-70
2021/09/08 00:03:35;;;;;;;20.60;13.57;;;12.40;98.00;;;;;;5036736;28;20029;-70
2021/09/08 00:06:00;;;;;;;21.15;13.75;;;12.40;98.00;;;;;;5036388;28;20029;-71
2021/09/08 00:08:26;;;;;;;23.90;13.43;;;12.40;98.00;;;;;;5034939;28;20029;-70
2021/09/08 00:10:53;;;;;;;21.67;13.77;;;12.30;98.00;;;;;;5036084;28;20480;-71
2021/09/08 00:13:18;;;;;;;22.52;14.15;;;12.30;98.00;;;;;;5035362;28;20616;-70
2021/09/08 00:15:44;;;;;;;20.27;13.60;;;12.20;98.00;;;;;;5034835;28;20104;-70
2021/09/08 00:18:10;;;;;;;20.45;12.90;;;12.10;98.00;;;;;;5027004;28;20094;-70
2021/09/08 00:20:36;;;;;;;23.02;14.20;;;11.90;98.00;;;;;;5036318;28;20033;-70
2021/09/08 00:23:01;;;;;;;22.55;13.77;;;11.90;98.00;;;;;;5035380;28;20041;-70
2021/09/08 00:25:30;;;;;;;21.13;14.05;;;11.80;98.00;;;;;;5035982;28;20029;-70
2021/09/08 00:27:56;;;;;;;21.90;13.30;;;11.80;98.00;;;;;;5035000;28;20030;-70
2021/09/08 00:30:21;;;;;;;24.58;15.02;;;11.80;98.00;;;;;;5036039;28;20028;-70
2021/09/08 00:32:47;;;;;;;23.75;14.27;;;11.70;98.00;;;;;;5036051;28;20025;-70
2021/09/08 00:35:13;;;;;;;23.70;13.75;;;11.80;98.00;;;;;;5035717;28;20054;-70
2021/09/08 00:37:39;;;;;;;22.23;14.23;;;11.90;98.00;;;;;;5035975;28;20029;-70
2021/09/08 00:40:07;;;;;;;23.70;13.98;;;11.80;98.00;;;;;;5035052;28;20100;-70
2021/09/08 00:42:33;;;;;;;18.95;13.05;;;11.80;98.00;;;;;;5035934;28;20364;-70
2021/09/08 00:44:58;;;;;;;19.75;13.75;;;11.70;98.00;;;;;;5035374;28;20029;-70
2021/09/08 00:47:24;;;;;;;22.55;14.85;;;11.70;98.00;;;;;;5035751;28;20095;-70
2021/09/08 00:49:50;;;;;;;20.27;14.50;;;11.70;98.00;;;;;;5034867;28;20025;-70
2021/09/08 00:52:16;;;;;;;22.13;14.80;;;11.60;98.00;;;;;;5036076;28;20064;-70
2021/09/08 00:54:49;;;;;;;22.48;14.07;;;11.70;98.00;;;;;;5034799;28;20033;-70
2021/09/08 00:57:16;;;;;;;20.52;13.90;;;11.70;98.00;;;;;;5035377;28;20060;-69
2021/09/08 00:59:43;;;;;;;22.92;13.82;;;11.60;98.00;;;;;;5035022;28;20088;-72
2021/09/08 01:02:09;;;;;;;22.10;14.95;;;11.70;98.00;;;;;;5035395;28;20018;-72
2021/09/08 01:04:35;;;;;;;23.83;13.73;;;11.60;98.00;;;;;;5035889;28;20029;-71
2021/09/08 01:07:05;;;;;;;23.25;14.73;;;11.70;98.00;;;;;;5034449;28;20032;-71
2021/09/08 01:09:31;;;;;;;22.70;14.10;;;11.80;98.00;;;;;;5034460;28;20098;-71
2021/09/08 01:11:57;;;;;;;22.25;13.55;;;11.70;98.00;;;;;;5035882;28;20033;-71
2021/09/08 01:14:26;;;;;;;23.92;14.30;;;11.70;98.00;;;;;;5035866;28;20097;-70
2021/09/08 01:16:54;;;;;;;21.45;13.73;;;11.70;98.00;;;;;;5034823;28;20159;-70
2021/09/08 01:19:21;;;;;;;19.02;12.85;;;11.70;98.00;;;;;;5035585;28;20029;-70
2021/09/08 01:21:47;;;;;;;21.80;14.73;;;11.60;98.00;;;;;;5035751;28;20319;-70
2021/09/08 01:24:13;;;;;;;20.67;14.00;;;11.60;98.00;;;;;;5034584;28;20036;-71
2021/09/08 01:26:41;;;;;;;22.15;14.35;;;11.50;98.00;;;;;;5036922;28;20108;-70
2021/09/08 01:29:08;;;;;;;20.75;14.02;;;11.50;98.00;;;;;;5047322;28;20368;-70
2021/09/08 01:31:33;;;;;;;24.25;14.60;;;11.50;98.00;;;;;;5049108;28;20018;-70
2021/09/08 01:33:59;;;;;;;26.38;14.52;;;11.60;98.00;;;;;;5038481;28;20506;-70
2021/09/08 01:36:25;;;;;;;22.40;14.38;;;11.50;98.00;;;;;;5039074;28;20045;-70
2021/09/08 01:38:50;;;;;;;23.83;14.77;;;11.40;98.00;;;;;;5038055;28;20068;-70
2021/09/08 01:41:16;;;;;;;20.35;13.45;;;11.40;98.00;;;;;;5039314;28;20415;-70
2021/09/08 01:43:45;;;;;;;21.48;14.25;;;11.40;98.00;;;;;;5039542;28;20032;-70
2021/09/08 01:46:22;;;;;;;23.15;14.70;;;11.50;98.00;;;;;;5038866;28;20090;-70
2021/09/08 01:48:47;;;;;;;22.08;14.38;;;11.50;98.00;;;;;;5037834;28;20033;-70
2021/09/08 01:51:13;;;;;;;21.63;14.30;;;11.50;98.00;;;;;;5038284;28;20029;-70
2021/09/08 01:53:39;;;;;;;23.20;13.85;;;11.40;98.00;;;;;;5037933;28;20064;-70
2021/09/08 01:56:05;;;;;;;20.35;13.20;;;11.40;98.00;;;;;;5038810;28;20427;-70
2021/09/08 01:58:31;;;;;;;22.67;13.95;;;11.40;98.00;;;;;;5038402;28;20060;-70
2021/09/08 02:00:57;;;;;;;22.83;13.70;;;11.40;98.00;;;;;;5038641;28;20469;-70
2021/09/08 02:03:23;;;;;;;20.27;13.23;;;11.50;98.00;;;;;;5039098;28;20442;-70
2021/09/08 02:05:49;;;;;;;24.42;14.27;;;11.40;98.00;;;;;;5038664;28;20497;-70
2021/09/08 02:08:15;;;;;;;21.35;14.05;;;11.30;98.00;;;;;;5037561;28;20486;-70
2021/09/08 02:10:40;;;;;;;21.75;14.40;;;11.30;98.00;;;;;;5038939;28;20018;-70
2021/09/08 02:13:06;;;;;;;18.80;13.13;;;11.30;98.00;;;;;;5038684;28;20407;-70
2021/09/08 02:15:32;;;;;;;21.02;13.25;;;11.10;98.00;;;;;;5038293;28;20068;-70
2021/09/08 02:17:58;;;;;;;21.63;13.82;;;11.20;98.00;;;;;;5037749;28;20042;-70
2021/09/08 02:20:24;;;;;;;19.65;13.68;;;11.20;98.00;;;;;;5038618;28;20031;-70
2021/09/08 02:22:49;;;;;;;27.95;14.82;;;11.20;98.00;;;;;;5038311;28;20040;-70
2021/09/08 02:25:15;;;;;;;19.92;13.32;;;11.20;98.00;;;;;;5037866;28;20027;-70
2021/09/08 02:27:41;;;;;;;24.95;15.38;;;11.20;98.00;;;;;;5038402;28;20025;-70
2021/09/08 02:30:07;;;;;;;23.52;14.43;;;11.20;98.00;;;;;;5022742;28;20026;-70
2021/09/08 02:32:33;;;;;;;24.17;13.73;;;11.10;98.00;;;;;;5019777;28;20026;-70
2021/09/08 02:34:58;;;;;;;23.60;13.77;;;11.00;98.00;;;;;;5018525;28;20096;-70
2021/09/08 02:37:24;;;;;;;24.00;13.80;;;11.00;98.00;;;;;;5036656;28;20057;-70
2021/09/08 02:39:50;;;;;;;23.17;14.77;;;10.90;98.00;;;;;;5036952;28;20022;-70
2021/09/08 02:42:16;;;;;;;23.60;15.02;;;11.00;98.00;;;;;;5037691;28;20079;-70
2021/09/08 02:44:42;;;;;;;27.25;14.77;;;11.00;98.00;;;;;;5038299;28;20017;-70
2021/09/08 02:47:08;;;;;;;23.35;14.40;;;11.00;98.00;;;;;;5037834;28;20300;-71
2021/09/08 02:49:34;;;;;;;23.55;14.50;;;10.90;98.00;;;;;;5038103;28;20036;-70
2021/09/08 02:52:00;;;;;;;24.33;14.98;;;10.90;98.00;;;;;;5037917;28;20034;-70
2021/09/08 02:54:25;;;;;;;22.50;15.15;;;10.80;98.00;;;;;;5036928;28;20049;-70
2021/09/08 02:56:51;;;;;;;21.98;15.20;;;10.90;98.00;;;;;;5037911;28;20030;-70
2021/09/08 02:59:17;;;;;;;25.73;15.85;;;10.90;98.00;;;;;;5037360;28;20041;-70
2021/09/08 03:01:42;;;;;;;23.63;15.52;;;10.90;98.00;;;;;;5037817;28;20029;-70
2021/09/08 03:04:08;;;;;;;26.23;16.20;;;10.90;98.00;;;;;;5037943;28;20033;-70
2021/09/08 03:06:34;;;;;;;21.20;14.30;;;10.90;98.00;;;;;;5036461;28;20136;-69
2021/09/08 03:08:59;;;;;;;26.63;15.95;;;10.90;98.00;;;;;;5036776;28;20108;-70
2021/09/08 03:11:26;;;;;;;24.50;16.23;;;10.80;98.00;;;;;;5037302;28;20087;-70
2021/09/08 03:13:52;;;;;;;25.77;16.50;;;10.80;98.00;;;;;;5037387;28;20056;-69
2021/09/08 03:16:18;;;;;;;25.73;15.43;;;10.80;98.00;;;;;;5037421;28;20033;-70
2021/09/08 03:18:44;;;;;;;23.95;14.30;;;10.70;98.00;;;;;;5037626;28;20104;-70
2021/09/08 03:21:12;;;;;;;25.45;16.30;;;10.70;98.00;;;;;;5037459;28;20029;-70
2021/09/08 03:23:37;;;;;;;23.15;15.88;;;10.70;98.00;;;;;;5036385;28;20040;-70
2021/09/08 03:26:03;;;;;;;23.58;14.85;;;10.70;98.00;;;;;;5037434;28;20029;-70
2021/09/08 03:28:28;;;;;;;23.85;15.40;;;10.60;98.00;;;;;;5036202;28;20032;-70
2021/09/08 03:30:54;;;;;;;25.77;15.15;;;10.60;98.00;;;;;;5036937;28;20033;-70
2021/09/08 03:33:20;;;;;;;21.40;14.82;;;10.60;98.00;;;;;;5037448;28;20438;-70
2021/09/08 03:35:45;;;;;;;21.25;13.57;;;10.50;98.00;;;;;;5037073;28;20129;-70
2021/09/08 03:38:11;;;;;;;24.23;15.38;;;10.50;98.00;;;;;;5035653;28;20041;-70
2021/09/08 03:40:40;;;;;;;26.10;15.13;;;10.40;98.00;;;;;;5037724;28;20428;-71
2021/09/08 03:43:06;;;;;;;25.38;14.00;;;10.30;98.00;;;;;;5035730;28;20033;-71
2021/09/08 03:45:34;;;;;;;20.48;12.32;;;10.20;98.00;;;;;;5034448;28;20105;-70
2021/09/08 03:47:59;;;;;;;18.58;12.35;;;10.30;98.00;;;;;;5036846;28;20323;-70
2021/09/08 03:50:25;;;;;;;17.83;12.10;;;10.30;98.00;;;;;;5035206;28;20033;-69
2021/09/08 03:52:51;;;;;;;20.10;12.80;;;10.30;98.00;;;;;;5024254;28;20029;-70
2021/09/08 03:55:17;;;;;;;21.35;13.55;;;10.20;98.00;;;;;;5035996;28;20030;-69
2021/09/08 03:57:42;;;;;;;17.65;12.52;;;10.20;98.00;;;;;;5035101;28;20030;-69
2021/09/08 04:00:09;;;;;;;23.73;13.75;;;10.20;98.00;;;;;;5021427;28;20338;-70
2021/09/08 04:02:35;;;;;;;21.13;13.85;;;10.30;98.00;;;;;;5017145;28;20037;-70
2021/09/08 04:05:02;;;;;;;22.02;13.68;;;10.20;98.00;;;;;;5017156;28;20029;-69
2021/09/08 04:07:28;;;;;;;19.63;13.45;;;10.20;98.00;;;;;;5016917;28;20379;-70
2021/09/08 04:09:54;;;;;;;17.88;11.57;;;10.10;98.00;;;;;;5015825;28;20096;-70
2021/09/08 04:12:20;;;;;;;21.90;13.52;;;10.10;98.00;;;;;;5033924;28;20036;-70
2021/09/08 04:14:45;;;;;;;18.42;11.38;;;10.10;98.00;;;;;;5036211;28;20021;-69
2021/09/08 04:17:11;;;;;;;19.48;13.07;;;10.10;98.00;;;;;;5036584;28;20032;-70
2021/09/08 04:19:37;;;;;;;20.65;12.50;;;10.00;98.00;;;;;;5036563;28;20021;-70
2021/09/08 04:22:03;;;;;;;19.83;12.70;;;9.90;98.00;;;;;;5036065;28;20083;-70
2021/09/08 04:24:28;;;;;;;18.88;12.13;;;9.90;98.00;;;;;;5035028;28;20108;-70
2021/09/08 04:26:54;;;;;;;21.17;13.60;;;9.90;98.00;;;;;;5036377;28;20470;-70
2021/09/08 04:29:20;;;;;;;21.83;13.93;;;9.80;98.00;;;;;;5035065;28;20032;-70
2021/09/08 04:31:46;;;;;;;22.25;13.93;;;9.80;98.00;;;;;;5018984;28;20315;-69
2021/09/08 04:34:11;;;;;;;20.80;12.98;;;9.90;98.00;;;;;;5034496;28;20021;-70
2021/09/08 04:36:37;;;;;;;22.42;13.57;;;10.00;98.00;;;;;;5035433;28;20379;-70
2021/09/08 04:39:04;;;;;;;21.35;12.98;;;9.90;98.00;;;;;;5034231;28;20030;-70
2021/09/08 04:41:30;;;;;;;19.70;12.68;;;9.90;98.00;;;;;;5036216;28;20026;-70
2021/09/08 04:43:55;;;;;;;22.92;12.77;;;9.90;98.00;;;;;;5035716;28;20075;-70
2021/09/08 04:46:21;;;;;;;18.38;12.50;;;9.90;98.00;;;;;;5035944;28;20041;-70
2021/09/08 04:48:47;;;;;;;18.90;12.02;;;9.80;98.00;;;;;;5038624;28;20025;-70
2021/09/08 04:51:15;;;;;;;20.63;12.95;;;9.80;98.00;;;;;;5044502;28;20036;-70
2021/09/08 04:53:40;;;;;;;17.98;12.02;;;9.80;98.00;;;;;;5029753;28;20099;-70
2021/09/08 04:56:09;;;;;;;16.80;11.32;;;9.70;98.00;;;;;;5035899;28;20021;-70
2021/09/08 04:58:34;;;;;;;19.95;12.65;;;9.70;98.00;;;;;;5035099;28;20441;-70
2021/09/08 05:01:00;;;;;;;19.17;12.40;;;9.70;98.00;;;;;;5034671;28;20038;-70
2021/09/08 05:03:26;;;;;;;20.35;11.95;;;9.70;98.00;;;;;;5035928;28;20107;-70
2021/09/08 05:05:51;;;;;;;20.65;11.95;;;9.70;98.00;;;;;;5035724;28;20048;-70
2021/09/08 05:08:17;;;;;;;18.42;11.90;;;9.80;98.00;;;;;;5024606;28;20026;-70
2021/09/08 05:10:42;;;;;;;20.52;11.88;;;9.90;98.00;;;;;;5035914;28;20022;-70
2021/09/08 05:13:09;;;;;;;19.65;12.07;;;9.80;98.00;;;;;;5035297;28;20096;-70
2021/09/08 05:15:34;;;;;;;19.10;11.25;;;9.80;98.00;;;;;;5035480;28;20322;-70
2021/09/08 05:18:00;;;;;;;24.13;12.43;;;9.90;98.00;;;;;;5034982;28;20026;-70
2021/09/08 05:20:27;;;;;;;20.45;12.38;;;10.00;98.00;;;;;;5035346;28;20456;-70
2021/09/08 05:22:53;;;;;;;22.60;12.38;;;10.20;98.00;;;;;;5034830;28;20042;-70
2021/09/08 05:25:18;;;;;;;20.60;12.15;;;10.30;98.00;;;;;;5025146;28;20322;-70
2021/09/08 05:27:44;;;;;;;19.50;11.82;;;10.30;98.00;;;;;;5034029;28;20429;-70
2021/09/08 05:30:10;;;;;;;19.48;11.70;;;10.20;98.00;;;;;;5034982;28;20295;-70
2021/09/08 05:32:35;;;;;;;22.02;13.27;;;10.10;98.00;;;;;;5035611;28;20083;-70
2021/09/08 05:35:01;;;;;;;19.35;12.27;;;10.20;98.00;;;;;;5034515;28;20417;-70
2021/09/08 05:37:27;;;;;;;21.55;13.15;;;10.30;98.00;;;;;;5035394;28;20116;-69
2021/09/08 05:39:56;;;;;;;20.90;12.55;;;10.40;98.00;;;;;;5034341;28;20022;-70
2021/09/08 05:42:21;;;;;;;20.85;13.15;;;10.60;98.00;;;;;;5035438;28;20055;-69
2021/09/08 05:44:47;;;;;;;19.63;11.90;;;10.70;98.00;;;;;;5034920;28;20057;-70
2021/09/08 05:47:13;;;;;;;24.30;15.30;;;10.70;98.00;;;;;;5034533;28;20052;-70
2021/09/08 05:49:38;;;;;;;23.90;14.20;;;10.70;98.00;;;;;;5034896;28;20022;-70
2021/09/08 05:52:04;;;;;;;22.83;13.93;;;10.80;98.00;;;;;;5035078;28;20034;-70
2021/09/08 05:54:30;;;;;;;38.22;16.45;;;10.90;98.00;;;;;;5034267;28;20030;-70
2021/09/08 05:56:56;;;;;;;23.20;13.63;;;11.00;98.00;;;;;;5035245;28;20033;-71
2021/09/08 05:59:21;;;;;;;20.58;12.35;;;11.10;98.00;;;;;;5035534;28;20022;-70
2021/09/08 06:01:47;;;;;;;26.58;16.15;;;11.30;98.00;;;;;;5035340;28;20022;-70
2021/09/08 06:04:13;;;;;;;21.52;13.23;;;11.40;98.00;;;;;;5035556;28;20021;-70
2021/09/08 06:06:38;;;;;;;21.52;13.55;;;11.50;98.00;;;;;;5034921;28;20022;-70
2021/09/08 06:09:06;;;;;;;26.50;16.63;;;11.60;98.00;;;;;;5034042;28;20033;-70
2021/09/08 06:11:32;;;;;;;25.13;15.52;;;11.80;98.00;;;;;;5035474;28;20104;-70
2021/09/08 06:13:57;;;;;;;23.25;15.32;;;11.90;98.00;;;;;;5037215;28;20164;-70
2021/09/08 06:16:26;;;;;;;24.13;14.68;;;12.40;98.00;;;;;;5038864;28;20358;-70
2021/09/08 06:18:52;;;;;;;19.55;13.52;;;13.10;98.00;;;;;;5022223;28;20029;-71
2021/09/08 06:21:18;;;;;;;24.20;15.30;;;13.90;98.00;;;;;;5038631;28;20044;-70
2021/09/08 06:23:44;;;;;;;24.85;14.60;;;14.10;96.00;;;;;;5037607;28;20426;-69
2021/09/08 06:26:10;;;;;;;21.10;13.55;;;13.90;96.50;;;;;;5023827;28;20034;-70
2021/09/08 06:28:35;;;;;;;24.40;14.65;;;13.80;96.60;;;;;;5034942;28;20033;-70
2021/09/08 06:31:01;;;;;;;24.08;15.57;;;13.70;96.90;;;;;;5035256;28;20108;-69
2021/09/08 06:33:27;;;;;;;26.20;15.63;;;13.70;97.10;;;;;;5038136;28;20021;-72
2021/09/08 06:35:53;;;;;;;24.85;15.43;;;13.60;97.50;;;;;;5038261;28;20045;-72
2021/09/08 06:38:18;;;;;;;29.45;16.27;;;13.50;97.50;;;;;;5086213;22;20006;-71
2021/09/08 06:40:47;;;;;;;23.42;14.25;;;13.50;97.70;;;;;;5038525;28;20034;-71
2021/09/08 06:43:13;;;;;;;21.42;13.38;;;13.50;97.30;;;;;;5038459;28;20022;-70
2021/09/08 06:45:41;;;;;;;20.58;12.20;;;13.60;96.80;;;;;;5038394;28;20029;-70
2021/09/08 06:48:06;;;;;;;22.40;12.80;;;13.60;95.70;;;;;;5038295;28;20044;-70
2021/09/08 06:50:32;;;;;;;21.85;12.77;;;13.70;95.30;;;;;;5036993;28;20033;-70
2021/09/08 06:52:58;;;;;;;22.17;14.10;;;13.80;96.30;;;;;;5027495;28;20079;-70
2021/09/08 06:55:23;;;;;;;24.25;15.18;;;14.00;96.50;;;;;;5020490;28;20040;-70
2021/09/08 06:57:49;;;;;;;25.63;14.60;;;14.30;96.70;;;;;;5029702;28;20024;-70
2021/09/08 07:00:15;;;;;;;22.75;14.20;;;14.50;96.60;;;;;;5038233;28;20030;-70
2021/09/08 07:02:40;;;;;;;21.48;13.30;;;14.60;96.40;;;;;;5037808;28;20103;-70
2021/09/08 07:05:06;;;;;;;21.55;13.15;;;14.80;96.50;;;;;;5037911;28;20025;-70
2021/09/08 07:07:32;;;;;;;19.65;12.30;;;15.00;94.90;;;;;;5037847;28;20025;-70
2021/09/08 07:09:58;;;;;;;19.42;11.23;;;15.20;93.30;;;;;;5036635;28;20025;-70
2021/09/08 07:12:23;;;;;;;21.55;11.90;;;15.40;92.40;;;;;;5038000;28;20075;-70
2021/09/08 07:14:49;;;;;;;17.77;11.07;;;15.60;92.40;;;;;;5037764;28;20131;-70
2021/09/08 07:17:14;;;;;;;18.70;11.77;;;15.70;91.90;;;;;;5037711;28;20083;-70
2021/09/08 07:19:40;;;;;;;18.00;11.82;;;15.80;91.40;;;;;;5037665;28;20087;-70
2021/09/08 07:22:06;;;;;;;24.52;12.63;;;15.90;91.70;;;;;;5037527;28;20418;-70
2021/09/08 07:24:31;;;;;;;19.67;12.30;;;16.10;90.50;;;;;;5036052;28;20471;-70
2021/09/08 07:26:57;;;;;;;22.08;13.00;;;16.10;91.00;;;;;;5037110;28;20040;-70
2021/09/08 07:29:24;;;;;;;17.95;12.27;;;16.30;91.90;;;;;;5018403;28;20036;-70
2021/09/08 07:31:51;;;;;;;22.33;12.50;;;16.50;91.50;;;;;;5017581;28;20389;-71
2021/09/08 07:34:17;;;;;;;20.60;12.30;;;16.70;91.00;;;;;;5017623;28;20076;-70
2021/09/08 07:36:42;;;;;;;17.58;11.52;;;16.80;90.40;;;;;;5017532;28;20018;-70
2021/09/08 07:39:08;;;;;;;17.08;10.90;;;16.90;88.60;;;;;;5016205;28;20057;-70
2021/09/08 07:41:34;;;;;;;17.73;11.05;;;16.90;88.10;;;;;;5016540;28;20030;-70
2021/09/08 07:44:00;;;;;;;20.88;12.18;;;17.00;88.80;;;;;;5017396;28;20034;-70
2021/09/08 07:46:26;;;;;;;18.92;10.60;;;17.20;88.80;;;;;;5022962;28;20056;-70
2021/09/08 07:48:51;;;;;;;24.85;11.25;;;17.40;87.70;;;;;;5036992;28;20030;-70
2021/09/08 07:51:19;;;;;;;18.23;11.80;;;17.60;88.30;;;;;;5035885;28;20434;-70
2021/09/08 07:53:45;;;;;;;19.15;12.23;;;17.80;88.40;;;;;;5035474;28;20021;-70
2021/09/08 07:56:11;;;;;;;21.08;11.35;;;17.90;88.30;;;;;;5036136;28;20410;-70
2021/09/08 07:58:39;;;;;;;18.80;11.80;;;18.00;88.40;;;;;;5036697;28;20307;-70
2021/09/08 08:01:05;;;;;;;16.95;10.85;;;18.20;88.00;;;;;;5036855;28;20039;-70
2021/09/08 08:03:30;;;;;;;15.88;10.68;;;18.50;86.70;;;;;;5036635;28;20021;-70
2021/09/08 08:05:56;;;;;;;18.40;11.15;;;18.80;86.40;;;;;;5036810;28;20057;-70
2021/09/08 08:08:22;;;;;;;15.48;9.95;;;19.50;84.20;;;;;;5035457;28;20036;-71
2021/09/08 08:10:48;;;;;;;14.77;9.70;;;20.40;81.40;;;;;;5036806;28;20297;-70
2021/09/08 08:13:13;;;;;;;14.85;9.02;;;21.40;78.80;;;;;;5036883;28;20026;-70
2021/09/08 08:15:42;;;;;;;16.83;9.85;;;22.40;77.20;;;;;;5036642;28;20025;-70
2021/09/08 08:18:08;;;;;;;13.90;8.98;;;23.20;73.80;;;;;;5036220;28;20353;-70
2021/09/08 08:20:34;;;;;;;13.30;8.80;;;23.40;73.80;;;;;;5036595;28;20118;-71
2021/09/08 08:22:59;;;;;;;14.00;8.45;;;24.30;72.90;;;;;;5035239;28;20030;-70
2021/09/08 08:25:29;;;;;;;12.82;8.52;;;24.50;70.40;;;;;;5033043;28;20068;-70
2021/09/08 08:28:01;;;;;;;13.48;9.00;;;24.90;70.80;;;;;;5036027;28;20112;-72
2021/09/08 08:30:27;;;;;;;13.52;8.77;;;25.20;69.80;;;;;;5020897;28;20049;-72
2021/09/08 08:32:52;;;;;;;13.25;8.63;;;25.40;69.30;;;;;;5016531;28;20108;-72
2021/09/08 08:35:18;;;;;;;14.95;8.57;;;25.20;70.10;;;;;;5016274;28;20018;-72
2021/09/08 08:37:44;;;;;;;14.52;9.73;;;25.20;69.80;;;;;;5032289;28;20040;-72
2021/09/08 08:40:12;;;;;;;14.27;9.00;;;25.10;69.60;;;;;;5034848;28;20045;-72
2021/09/08 08:42:38;;;;;;;15.27;9.40;;;24.70;70.80;;;;;;5036234;28;20028;-72
2021/09/08 08:45:06;;;;;;;13.95;8.95;;;24.60;70.90;;;;;;5036285;28;20075;-72
2021/09/08 08:47:33;;;;;;;14.02;7.82;;;25.30;70.10;;;;;;5035704;28;20025;-71
2021/09/08 08:49:59;;;;;;;13.32;8.30;;;25.50;69.50;;;;;;5036142;28;20113;-71
2021/09/08 08:52:25;;;;;;;12.57;9.23;;;25.70;69.70;;;;;;5036094;28;20473;-71
2021/09/08 08:54:51;;;;;;;13.50;7.93;;;26.10;68.50;;;;;;5023960;28;20105;-71
2021/09/08 08:57:18;;;;;;;14.60;8.25;;;26.20;67.80;;;;;;5016339;28;20105;-71
2021/09/08 08:59:45;;;;;;;11.25;7.78;;;26.50;67.90;;;;;;5016275;28;20453;-71
2021/09/08 09:02:30;;;;;;;15.02;9.00;;;26.50;68.40;;;;;;5016293;28;20292;-71
2021/09/08 09:05:00;;;;;;;11.38;7.85;;;26.70;69.10;;;;;;5016183;28;20362;-71
2021/09/08 09:07:45;;;;;;;11.52;7.78;;;27.30;67.20;;;;;;5016152;28;20018;-71
2021/09/08 09:10:13;;;;;;;13.60;8.13;;;27.20;68.00;;;;;;5015207;28;20022;-71
2021/09/08 09:12:42;;;;;;;11.73;7.47;;;27.70;67.30;;;;;;5016164;28;20037;-71
2021/09/08 09:15:17;;;;;;;12.68;8.43;;;28.20;65.90;;;;;;5016106;28;20080;-71
2021/09/08 09:17:43;;;;;;;10.23;7.53;;;28.40;65.50;;;;;;5033095;28;20087;-71
2021/09/08 09:20:11;;;;;;;11.60;8.48;;;28.40;65.10;;;;;;5016013;28;20033;-71
2021/09/08 09:22:49;;;;;;;14.15;8.55;;;27.80;65.80;;;;;;5016074;28;20064;-71
2021/09/08 09:25:18;;;;;;;14.70;9.48;;;27.40;66.00;;;;;;5029277;28;20021;-70
2021/09/08 09:27:47;;;;;;;9.80;7.05;;;27.00;67.40;;;;;;5015945;28;20025;-71
2021/09/08 09:30:18;;;;;;;12.82;8.02;;;27.80;67.80;;;;;;5015955;28;20029;-70
2021/09/08 09:32:47;;;;;;;12.35;7.97;;;28.20;66.00;;;;;;5014902;28;20026;-72
2021/09/08 09:35:15;;;;;;;11.43;7.60;;;28.20;65.10;;;;;;5015892;28;20022;-71
2021/09/08 09:37:49;;;;;;;12.23;8.20;;;27.70;66.60;;;;;;5015865;28;20050;-71
2021/09/08 09:40:22;;;;;;;12.50;8.13;;;27.70;67.50;;;;;;5015818;28;20046;-71
2021/09/08 09:42:47;;;;;;;12.00;8.40;;;27.80;67.30;;;;;;5015001;28;20430;-71
2021/09/08 09:45:14;;;;;;;11.60;7.95;;;28.10;66.80;;;;;;5015960;28;20030;-70
2021/09/08 09:47:43;;;;;;;13.40;7.57;;;27.60;67.40;;;;;;5032212;28;20022;-71
2021/09/08 09:50:14;;;;;;;10.55;7.50;;;27.80;68.10;;;;;;5039188;28;20441;-71
2021/09/08 09:52:40;;;;;;;11.20;7.47;;;28.50;66.00;;;;;;5039296;28;20022;-71
2021/09/08 09:55:06;;;;;;;12.65;7.63;;;28.90;64.80;;;;;;5034555;28;20025;-70
2021/09/08 09:57:33;;;;;;;11.82;7.93;;;28.90;65.30;;;;;;5037817;28;20489;-70
2021/09/08 09:59:59;;;;;;;8.82;6.40;;;29.00;65.40;;;;;;5033632;28;20478;-71
2021/09/08 10:02:26;;;;;;;10.43;6.25;;;29.00;63.40;;;;;;5019342;28;20454;-71
2021/09/08 10:04:53;;;;;;;10.35;6.57;;;29.40;63.50;;;;;;5028173;28;20053;-71
2021/09/08 10:07:22;;;;;;;12.45;5.97;;;30.10;62.30;;;;;;5039145;28;20026;-71
2021/09/08 10:09:52;;;;;;;8.57;5.70;;;30.60;60.00;;;;;;5037772;28;20112;-71
2021/09/08 10:12:24;;;;;;;8.23;5.75;;;31.00;59.10;;;;;;5039044;28;20049;-71
2021/09/08 10:14:50;;;;;;;8.40;5.35;;;31.30;57.60;;;;;;5038947;28;20021;-71
2021/09/08 10:17:19;;;;;;;9.13;5.40;;;31.00;57.80;;;;;;5038564;28;20022;-71
2021/09/08 10:19:45;;;;;;;13.13;7.05;;;31.20;57.00;;;;;;5038878;28;20490;-71
2021/09/08 10:22:13;;;;;;;9.88;6.40;;;31.20;55.90;;;;;;5038742;28;20283;-71
2021/09/08 10:24:46;;;;;;;9.20;5.50;;;32.00;56.20;;;;;;5037635;28;20108;-71
2021/09/08 10:27:33;;;;;;;8.07;5.68;;;32.20;55.20;;;;;;5037777;28;20318;-71
2021/09/08 10:29:59;;;;;;;8.43;5.75;;;32.40;54.70;;;;;;5033586;28;20059;-71
2021/09/08 10:32:25;;;;;;;8.93;5.70;;;32.60;54.00;;;;;;5028244;28;20022;-71
2021/09/08 10:34:50;;;;;;;10.68;6.25;;;32.20;54.30;;;;;;5038576;28;20421;-70
2021/09/08 10:37:17;;;;;;;10.52;5.75;;;32.70;55.30;;;;;;5038495;28;20295;-71
2021/09/08 10:39:44;;;;;;;9.50;5.75;;;32.70;54.00;;;;;;5037334;28;20119;-70
2021/09/08 10:42:10;;;;;;;9.48;5.60;;;32.50;54.20;;;;;;5035279;28;20029;-71
2021/09/08 10:44:50;;;;;;;8.93;6.00;;;32.50;54.90;;;;;;5018536;28;20326;-71
2021/09/08 10:47:37;;;;;;;10.70;7.53;;;32.40;56.30;;;;;;5018658;28;20319;-70
2021/09/08 10:50:05;;;;;;;10.23;6.97;;;32.30;56.30;;;;;;5017376;28;20329;-71
2021/09/08 10:52:37;;;;;;;12.32;7.95;;;30.50;59.80;;;;;;5017234;28;20029;-70
2021/09/08 10:55:02;;;;;;;13.90;8.13;;;29.30;61.80;;;;;;5019445;28;20449;-71
2021/09/08 10:57:54;;;;;;;12.52;7.40;;;29.00;63.10;;;;;;5036925;28;20061;-70
2021/09/08 11:00:27;;;;;;;10.57;7.05;;;29.00;64.10;;;;;;5034579;28;20088;-70
2021/09/08 11:02:53;;;;;;;;;;;28.70;63.50;;;;;;5038413;28;20022;-70
2021/09/08 11:05:18;;;;;;;11.20;7.15;;;28.70;64.20;;;;;;5037806;28;19916;-71
2021/09/08 11:07:49;;;;;;;12.23;7.40;;;28.30;64.00;;;;;;5037257;28;20026;-71
2021/09/08 11:10:32;;;;;;;12.80;7.70;;;28.40;64.20;;;;;;5037916;28;20315;-71
2021/09/08 11:13:02;;;;;;;12.73;7.45;;;28.10;64.30;;;;;;5037585;28;20309;-71
2021/09/08 11:15:34;;;;;;;9.82;6.97;;;28.00;65.10;;;;;;5037573;28;20026;-69
2021/09/08 11:18:04;;;;;;;11.35;7.55;;;28.60;65.10;;;;;;5037914;28;20026;-71
2021/09/08 11:20:30;;;;;;;11.43;7.45;;;29.50;62.00;;;;;;5037717;28;20026;-70
2021/09/08 11:22:59;;;;;;;9.43;7.03;;;29.80;61.70;;;;;;5036506;28;20048;-70
2021/09/08 11:25:36;;;;;;;10.02;6.72;;;30.10;60.80;;;;;;5036616;28;20053;-71
2021/09/08 11:28:03;;;;;;;11.80;7.97;;;30.30;60.80;;;;;;5023027;28;20045;-70
2021/09/08 11:30:38;;;;;;;11.50;7.70;;;29.30;61.80;;;;;;5017736;28;20037;-70
2021/09/08 11:33:06;;;;;;;12.07;7.30;;;29.30;63.30;;;;;;5017739;28;20037;-70
2021/09/08 11:35:51;;;;;;;11.57;7.43;;;29.30;63.50;;;;;;5017672;28;20026;-70
2021/09/08 11:38:26;;;;;;;13.93;7.82;;;29.40;64.10;;;;;;5015111;28;20319;-70
2021/09/08 11:40:59;;;;;;;13.02;7.55;;;29.40;61.80;;;;;;5017559;28;20040;-70
2021/09/08 11:43:38;;;;;;;13.13;8.00;;;29.40;64.10;;;;;;5034544;28;20414;-70
2021/09/08 11:46:16;;;;;;;12.85;7.97;;;29.30;62.60;;;;;;5037034;28;20045;-71
2021/09/08 11:48:42;;;;;;;12.38;7.70;;;29.00;63.60;;;;;;5036987;28;20325;-71
2021/09/08 11:51:10;;;;;;;11.00;7.75;;;29.00;64.10;;;;;;5036897;28;20022;-70
2021/09/08 11:53:36;;;;;;;11.50;8.10;;;28.90;64.40;;;;;;5035538;28;20034;-70
2021/09/08 11:56:10;;;;;;;12.43;7.30;;;28.90;65.40;;;;;;5036006;28;20104;-70
2021/09/08 11:58:37;;;;;;;11.10;7.32;;;28.90;65.40;;;;;;5018132;28;20415;-70
2021/09/08 12:01:11;;;;;;;11.40;6.63;;;29.30;63.60;;;;;;5024229;28;20044;-70
2021/09/08 12:03:45;;;;;;;12.60;6.90;;;29.30;64.00;;;;;;5036684;28;20021;-70
2021/09/08 12:06:14;;;;;;;12.05;7.20;;;29.20;65.00;;;;;;5036919;28;20026;-70
2021/09/08 12:08:48;;;;;;;9.02;6.38;;;29.60;62.70;;;;;;5035354;28;20024;-70
2021/09/08 12:11:32;;;;;;;9.80;7.40;;;29.00;62.90;;;;;;5036755;28;20021;-71
2021/09/08 12:14:24;;;;;;;9.70;6.75;;;28.70;64.80;;;;;;5036601;28;20029;-70
2021/09/08 12:16:55;;;;;;;8.55;4.95;;;29.30;64.00;;;;;;5036726;28;20022;-70
2021/09/08 12:19:35;;;;;;;8.30;4.07;;;29.90;57.90;;;;;;5036572;28;20155;-70
2021/09/08 12:22:08;;;;;;;6.93;4.03;;;30.20;55.00;;;;;;5036338;28;20017;-69
2021/09/08 12:24:47;;;;;;;6.53;3.95;;;30.20;56.30;;;;;;5024497;28;20652;-70
2021/09/08 12:27:32;;;;;;;7.13;3.60;;;30.40;54.80;;;;;;5018793;28;20056;-71
2021/09/08 12:30:09;;;;;;;9.80;4.55;;;30.60;55.30;;;;;;5036005;28;20033;-71
2021/09/08 12:32:43;;;;;;;9.93;4.90;;;30.80;54.40;;;;;;5035913;28;20132;-71
2021/09/08 12:35:09;;;;;;;7.38;4.70;;;30.90;53.40;;;;;;5023129;28;20022;-71